createdAt,value
2018-11-07T00:01:02.229Z,100
2018-11-07T00:02:04.261Z,100
2018-11-07T00:03:06.278Z,100
2018-11-07T00:04:08.303Z,100
2018-11-07T00:05:10.621Z,100
2018-11-07T00:06:12.913Z,100
2018-11-07T00:07:14.939Z,100
2018-11-07T00:08:17.163Z,100
2018-11-07T00:09:19.496Z,100
2018-11-07T00:10:21.524Z,100
2018-11-07T00:11:23.535Z,100
2018-11-07T00:12:25.843Z,100
2018-11-07T00:13:28.257Z,100
2018-11-07T00:14:30.274Z,100
2018-11-07T00:15:32.310Z,100
2018-11-07T00:16:34.611Z,100
2018-11-07T00:17:36.919Z,100
2018-11-07T00:18:38.925Z,100
2018-11-07T00:19:40.960Z,100
2018-11-07T00:20:43.653Z,100
2018-11-07T00:21:45.676Z,100
2018-11-07T00:22:47.718Z,100
2018-11-07T00:23:49.730Z,100
2018-11-07T00:24:51.759Z,100
2018-11-07T00:25:53.784Z,100
2018-11-07T00:26:55.811Z,100
2018-11-07T00:27:57.826Z,100
2018-11-07T00:29:00.133Z,100
2018-11-07T00:30:02.635Z,100
2018-11-07T00:31:04.558Z,100
2018-11-07T00:32:06.903Z,100
2018-11-07T00:33:08.915Z,100
2018-11-07T00:34:10.935Z,100
2018-11-07T00:35:13.534Z,100
2018-11-07T00:36:15.845Z,100
2018-11-07T00:37:18.245Z,100
2018-11-07T00:38:20.268Z,100
2018-11-07T00:39:22.287Z,100
2018-11-07T00:40:24.319Z,100
2018-11-07T00:41:26.732Z,100
2018-11-07T00:42:28.860Z,100
2018-11-07T00:43:30.774Z,100
2018-11-07T00:44:33.096Z,100
2018-11-07T00:45:35.111Z,100
2018-11-07T00:46:37.132Z,100
2018-11-07T00:47:39.161Z,100
2018-11-07T00:48:41.471Z,100
2018-11-07T00:49:43.500Z,100
2018-11-07T00:50:45.515Z,100
2018-11-07T00:51:48.140Z,100
2018-11-07T00:52:50.149Z,100
2018-11-07T00:53:52.174Z,100
2018-11-07T00:54:54.589Z,100
2018-11-07T00:55:56.604Z,100
2018-11-07T00:56:58.639Z,100
2018-11-07T00:58:00.709Z,100
2018-11-07T00:59:02.675Z,100
2018-11-07T01:00:04.693Z,100
2018-11-07T01:01:06.723Z,100
2018-11-07T01:02:08.743Z,100
2018-11-07T01:03:10.770Z,100
2018-11-07T01:04:13.075Z,100
2018-11-07T01:05:15.124Z,100
2018-11-07T01:06:17.432Z,100
2018-11-07T01:07:19.460Z,100
2018-11-07T01:08:21.472Z,100
2018-11-07T01:09:23.538Z,100
2018-11-07T01:10:25.892Z,100
2018-11-07T01:11:27.915Z,100
2018-11-07T01:12:29.942Z,100
2018-11-07T01:13:31.988Z,100
2018-11-07T01:14:34.355Z,100
2018-11-07T01:15:36.396Z,100
2018-11-07T01:16:38.454Z,100
2018-11-07T01:17:41.491Z,100
2018-11-07T01:18:43.517Z,100
2018-11-07T01:19:45.832Z,100
2018-11-07T01:20:47.865Z,100
2018-11-07T01:21:50.177Z,100
2018-11-07T01:22:52.194Z,100
2018-11-07T01:23:54.224Z,100
2018-11-07T01:24:56.234Z,100
2018-11-07T01:25:58.565Z,100
2018-11-07T01:27:00.594Z,100
2018-11-07T01:28:02.677Z,100
2018-11-07T01:29:05.006Z,100
2018-11-07T01:30:07.038Z,100
2018-11-07T01:31:09.441Z,100
2018-11-07T01:32:11.469Z,100
2018-11-07T01:33:13.475Z,100
2018-11-07T01:34:15.507Z,100
2018-11-07T01:35:17.518Z,100
2018-11-07T01:36:19.537Z,100
2018-11-07T01:37:21.562Z,100
2018-11-07T01:38:24.155Z,100
2018-11-07T01:39:26.183Z,100
2018-11-07T01:40:28.879Z,100
2018-11-07T01:41:31.189Z,100
2018-11-07T01:42:33.217Z,100
2018-11-07T01:43:35.245Z,100
2018-11-07T01:44:37.262Z,100
2018-11-07T01:45:39.289Z,100
2018-11-07T01:46:41.304Z,100
2018-11-07T01:47:43.605Z,100
2018-11-07T01:48:45.622Z,100
2018-11-07T01:49:47.651Z,100
2018-11-07T01:50:49.951Z,100
2018-11-07T01:51:51.978Z,100
2018-11-07T01:52:53.997Z,100
2018-11-07T01:53:56.065Z,100
2018-11-07T01:54:58.381Z,100
2018-11-07T01:56:00.397Z,100
2018-11-07T01:57:02.426Z,100
2018-11-07T01:58:04.435Z,100
2018-11-07T01:59:06.463Z,100
2018-11-07T02:00:08.767Z,100
2018-11-07T02:01:10.783Z,100
2018-11-07T02:02:12.810Z,100
2018-11-07T02:03:14.821Z,100
2018-11-07T02:04:16.849Z,100
2018-11-07T02:05:18.876Z,100
2018-11-07T02:06:20.900Z,100
2018-11-07T02:07:22.908Z,100
2018-11-07T02:08:24.931Z,100
2018-11-07T02:09:26.953Z,100
2018-11-07T02:10:28.972Z,100
2018-11-07T02:11:31.006Z,100
2018-11-07T02:12:33.026Z,100
2018-11-07T02:13:35.040Z,100
2018-11-07T02:14:37.074Z,100
2018-11-07T02:15:39.375Z,100
2018-11-07T02:16:41.679Z,100
2018-11-07T02:17:43.997Z,100
2018-11-07T02:18:46.013Z,100
2018-11-07T02:19:48.038Z,100
2018-11-07T02:20:50.061Z,100
2018-11-07T02:21:52.088Z,100
2018-11-07T02:22:54.102Z,100
2018-11-07T02:23:56.127Z,100
2018-11-07T02:24:58.431Z,100
2018-11-07T02:26:00.842Z,100
2018-11-07T02:27:03.819Z,100
2018-11-07T02:28:06.218Z,100
2018-11-07T02:29:08.241Z,100
2018-11-07T02:30:11.349Z,100
2018-11-07T02:31:13.763Z,100
2018-11-07T02:32:16.065Z,100
2018-11-07T02:33:18.094Z,100
2018-11-07T02:34:20.138Z,100
2018-11-07T02:35:22.817Z,100
2018-11-07T02:36:24.849Z,100
2018-11-07T02:37:27.295Z,100
2018-11-07T02:38:30.267Z,100
2018-11-07T02:39:32.285Z,100
2018-11-07T02:40:34.711Z,100
2018-11-07T02:41:36.779Z,100
2018-11-07T02:42:38.737Z,100
2018-11-07T02:43:41.138Z,100
2018-11-07T02:44:43.560Z,100
2018-11-07T02:45:46.162Z,100
2018-11-07T02:46:48.177Z,100
2018-11-07T02:47:50.209Z,100
2018-11-07T02:48:52.522Z,100
2018-11-07T02:49:54.923Z,100
2018-11-07T02:50:57.520Z,100
2018-11-07T02:52:00.116Z,100
2018-11-07T02:53:02.531Z,100
2018-11-07T02:54:04.556Z,100
2018-11-07T02:55:06.866Z,100
2018-11-07T02:56:08.875Z,100
2018-11-07T02:57:10.908Z,100
2018-11-07T02:58:12.938Z,100
2018-11-07T02:59:15.249Z,100
2018-11-07T03:00:17.970Z,100
2018-11-07T03:01:20.083Z,100
2018-11-07T03:02:22.014Z,100
2018-11-07T03:03:24.027Z,100
2018-11-07T03:04:26.345Z,100
2018-11-07T03:05:28.917Z,100
2018-11-07T03:06:30.947Z,100
2018-11-07T03:07:32.971Z,100
2018-11-07T03:08:35.303Z,100
2018-11-07T03:09:37.338Z,100
2018-11-07T03:10:40.434Z,100
2018-11-07T03:11:42.254Z,100
2018-11-07T03:12:44.934Z,100
2018-11-07T03:13:47.351Z,100
2018-11-07T03:14:49.368Z,100
2018-11-07T03:15:51.679Z,100
2018-11-07T03:16:53.702Z,100
2018-11-07T03:17:55.717Z,100
2018-11-07T03:18:57.747Z,100
2018-11-07T03:20:00.344Z,100
2018-11-07T03:21:02.648Z,100
2018-11-07T03:22:04.676Z,100
2018-11-07T03:23:06.701Z,100
2018-11-07T03:24:08.723Z,100
2018-11-07T03:25:10.750Z,100
2018-11-07T03:26:12.769Z,100
2018-11-07T03:27:15.746Z,100
2018-11-07T03:28:17.765Z,100
2018-11-07T03:29:19.797Z,100
2018-11-07T03:30:22.375Z,100
2018-11-07T03:31:24.992Z,100
2018-11-07T03:32:27.317Z,100
2018-11-07T03:33:29.341Z,100
2018-11-07T03:34:31.767Z,100
2018-11-07T03:35:33.781Z,100
2018-11-07T03:36:36.110Z,100
2018-11-07T03:37:38.416Z,100
2018-11-07T03:38:40.448Z,100
2018-11-07T03:39:42.968Z,100
2018-11-07T03:40:45.216Z,100
2018-11-07T03:41:47.253Z,100
2018-11-07T03:42:49.262Z,100
2018-11-07T03:43:51.285Z,100
2018-11-07T03:44:53.697Z,100
2018-11-07T03:45:55.721Z,100
2018-11-07T03:46:58.048Z,100
2018-11-07T03:48:00.070Z,100
2018-11-07T03:49:02.391Z,100
2018-11-07T03:50:04.400Z,100
2018-11-07T03:51:06.708Z,100
2018-11-07T03:52:08.722Z,100
2018-11-07T03:53:10.777Z,100
2018-11-07T03:54:13.052Z,100
2018-11-07T03:55:15.065Z,100
2018-11-07T03:56:17.088Z,100
2018-11-07T03:57:19.670Z,100
2018-11-07T03:58:21.707Z,100
2018-11-07T03:59:24.005Z,100
2018-11-07T04:00:26.025Z,100
2018-11-07T04:01:28.325Z,100
2018-11-07T04:02:30.357Z,100
2018-11-07T04:03:32.763Z,100
2018-11-07T04:04:34.793Z,100
2018-11-07T04:05:37.094Z,100
2018-11-07T04:06:39.398Z,100
2018-11-07T04:07:41.709Z,100
2018-11-07T04:08:44.011Z,100
2018-11-07T04:09:46.039Z,100
2018-11-07T04:10:48.046Z,100
2018-11-07T04:11:50.077Z,100
2018-11-07T04:12:52.092Z,100
2018-11-07T04:13:54.402Z,100
2018-11-07T04:14:56.426Z,100
2018-11-07T04:15:58.822Z,100
2018-11-07T04:17:01.150Z,100
2018-11-07T04:18:03.465Z,100
2018-11-07T04:19:05.794Z,100
2018-11-07T04:20:08.189Z,100
2018-11-07T04:21:10.500Z,100
2018-11-07T04:22:12.518Z,100
2018-11-07T04:23:14.942Z,100
2018-11-07T04:24:17.340Z,100
2018-11-07T04:25:19.352Z,100
2018-11-07T04:26:21.380Z,100
2018-11-07T04:27:23.400Z,100
2018-11-07T04:28:25.800Z,100
2018-11-07T04:29:28.099Z,100
2018-11-07T04:30:30.418Z,100
2018-11-07T04:31:32.425Z,100
2018-11-07T04:32:35.023Z,100
2018-11-07T04:33:37.333Z,100
2018-11-07T04:34:39.664Z,100
2018-11-07T04:35:41.695Z,100
2018-11-07T04:36:43.992Z,100
2018-11-07T04:37:46.028Z,100
2018-11-07T04:38:48.043Z,100
2018-11-07T04:39:50.345Z,100
2018-11-07T04:40:52.375Z,100
2018-11-07T04:41:54.396Z,100
2018-11-07T04:42:56.736Z,100
2018-11-07T04:43:58.750Z,100
2018-11-07T04:45:01.380Z,100
2018-11-07T04:46:03.397Z,100
2018-11-07T04:47:05.693Z,100
2018-11-07T04:48:08.011Z,100
2018-11-07T04:49:10.026Z,100
2018-11-07T04:50:12.045Z,100
2018-11-07T04:51:14.459Z,100
2018-11-07T04:52:16.805Z,100
2018-11-07T04:53:18.822Z,100
2018-11-07T04:54:21.812Z,100
2018-11-07T04:55:23.833Z,100
2018-11-07T04:56:25.844Z,100
2018-11-07T04:57:27.873Z,100
2018-11-07T04:58:29.889Z,100
2018-11-07T04:59:31.905Z,100
2018-11-07T05:00:33.937Z,100
2018-11-07T05:01:35.951Z,100
2018-11-07T05:02:37.966Z,100
2018-11-07T05:03:39.988Z,100
2018-11-07T05:04:42.006Z,100
2018-11-07T05:05:44.034Z,100
2018-11-07T05:06:46.058Z,100
2018-11-07T05:07:48.143Z,100
2018-11-07T05:08:50.581Z,100
2018-11-07T05:09:52.483Z,100
2018-11-07T05:10:54.494Z,100
2018-11-07T05:11:56.899Z,100
2018-11-07T05:12:58.916Z,100
2018-11-07T05:14:00.946Z,100
2018-11-07T05:15:02.973Z,100
2018-11-07T05:16:05.276Z,100
2018-11-07T05:17:07.588Z,100
2018-11-07T05:18:09.619Z,100
2018-11-07T05:19:11.636Z,100
2018-11-07T05:20:13.646Z,100
2018-11-07T05:21:15.669Z,100
2018-11-07T05:22:17.678Z,100
2018-11-07T05:23:19.701Z,100
2018-11-07T05:24:22.110Z,100
2018-11-07T05:25:24.422Z,100
2018-11-07T05:26:26.935Z,100
2018-11-07T05:27:28.850Z,100
2018-11-07T05:28:30.869Z,100
2018-11-07T05:29:33.168Z,100
2018-11-07T05:30:35.197Z,100
2018-11-07T05:31:37.599Z,100
2018-11-07T05:32:39.617Z,100
2018-11-07T05:33:41.648Z,100
2018-11-07T05:34:43.661Z,100
2018-11-07T05:35:45.675Z,100
2018-11-07T05:36:47.693Z,100
2018-11-07T05:37:49.708Z,100
2018-11-07T05:38:51.734Z,100
2018-11-07T05:39:53.763Z,100
2018-11-07T05:40:55.817Z,100
2018-11-07T05:41:57.803Z,100
2018-11-07T05:42:59.837Z,100
2018-11-07T05:44:01.848Z,100
2018-11-07T05:45:03.869Z,100
2018-11-07T05:46:05.891Z,100
2018-11-07T05:47:07.904Z,100
2018-11-07T05:48:09.922Z,100
2018-11-07T05:49:12.784Z,100
2018-11-07T05:50:14.548Z,100
2018-11-07T05:51:16.554Z,100
2018-11-07T05:52:18.580Z,100
2018-11-07T05:53:20.609Z,100
2018-11-07T05:54:22.619Z,100
2018-11-07T05:55:24.649Z,100
2018-11-07T05:56:26.660Z,100
2018-11-07T05:57:28.670Z,100
2018-11-07T05:58:30.688Z,100
2018-11-07T05:59:32.715Z,100
2018-11-07T06:00:34.733Z,100
2018-11-07T06:01:36.748Z,100
2018-11-07T06:02:39.153Z,100
2018-11-07T06:03:41.162Z,100
2018-11-07T06:04:43.490Z,100
2018-11-07T06:05:45.513Z,100
2018-11-07T06:06:47.908Z,100
2018-11-07T06:07:49.933Z,100
2018-11-07T06:08:52.628Z,100
2018-11-07T06:09:54.645Z,100
2018-11-07T06:10:57.054Z,100
2018-11-07T06:11:59.066Z,100
2018-11-07T06:13:01.082Z,100
2018-11-07T06:14:03.373Z,100
2018-11-07T06:15:05.404Z,100
2018-11-07T06:16:07.460Z,100
2018-11-07T06:17:09.728Z,100
2018-11-07T06:18:12.031Z,100
2018-11-07T06:19:14.048Z,100
2018-11-07T06:20:16.748Z,100
2018-11-07T06:21:19.147Z,100
2018-11-07T06:22:21.177Z,100
2018-11-07T06:23:23.184Z,100
2018-11-07T06:24:25.288Z,100
2018-11-07T06:25:27.232Z,100
2018-11-07T06:26:29.245Z,100
2018-11-07T06:27:31.267Z,100
2018-11-07T06:28:33.281Z,100
2018-11-07T06:29:35.587Z,100
2018-11-07T06:30:37.599Z,100
2018-11-07T06:31:39.611Z,100
2018-11-07T06:32:42.028Z,100
2018-11-07T06:33:44.318Z,100
2018-11-07T06:34:46.336Z,100
2018-11-07T06:35:49.311Z,100
2018-11-07T06:36:51.606Z,100
2018-11-07T06:37:53.911Z,100
2018-11-07T06:38:56.223Z,100
2018-11-07T06:39:58.231Z,100
2018-11-07T06:41:00.257Z,100
2018-11-07T06:42:02.282Z,100
2018-11-07T06:43:04.590Z,100
2018-11-07T06:44:07.179Z,100
2018-11-07T06:45:09.196Z,100
2018-11-07T06:46:11.507Z,100
2018-11-07T06:47:13.819Z,100
2018-11-07T06:48:15.851Z,100
2018-11-07T06:49:17.855Z,100
2018-11-07T06:50:19.896Z,100
2018-11-07T06:51:21.902Z,100
2018-11-07T06:52:23.918Z,100
2018-11-07T06:53:25.949Z,100
2018-11-07T06:54:27.965Z,100
2018-11-07T06:55:30.677Z,100
2018-11-07T06:56:32.667Z,100
2018-11-07T06:57:34.696Z,100
2018-11-07T06:58:36.709Z,100
2018-11-07T06:59:38.722Z,100
2018-11-07T07:00:40.744Z,100
2018-11-07T07:01:42.752Z,100
2018-11-07T07:02:45.169Z,100
2018-11-07T07:03:47.768Z,100
2018-11-07T07:04:50.071Z,100
2018-11-07T07:05:52.081Z,100
2018-11-07T07:06:54.103Z,100
2018-11-07T07:07:56.127Z,100
2018-11-07T07:08:58.150Z,100
2018-11-07T07:10:00.461Z,100
2018-11-07T07:11:02.483Z,100
2018-11-07T07:12:04.797Z,100
2018-11-07T07:13:06.811Z,100
2018-11-07T07:14:09.394Z,100
2018-11-07T07:15:11.705Z,100
2018-11-07T07:16:13.731Z,100
2018-11-07T07:17:15.758Z,100
2018-11-07T07:18:17.775Z,100
2018-11-07T07:19:20.194Z,100
2018-11-07T07:20:22.214Z,100
2018-11-07T07:21:24.240Z,100
2018-11-07T07:22:26.917Z,100
2018-11-07T07:23:28.942Z,100
2018-11-07T07:24:30.959Z,100
2018-11-07T07:25:33.376Z,100
2018-11-07T07:26:35.383Z,100
2018-11-07T07:27:37.401Z,100
2018-11-07T07:28:39.429Z,100
2018-11-07T07:29:41.493Z,100
2018-11-07T07:30:43.468Z,100
2018-11-07T07:31:45.763Z,100
2018-11-07T07:32:48.157Z,100
2018-11-07T07:33:50.753Z,100
2018-11-07T07:34:52.596Z,100
2018-11-07T07:35:54.621Z,100
2018-11-07T07:36:56.645Z,100
2018-11-07T07:37:58.672Z,100
2018-11-07T07:39:01.070Z,100
2018-11-07T07:40:03.712Z,100
2018-11-07T07:41:05.733Z,100
2018-11-07T07:42:07.750Z,100
2018-11-07T07:43:09.780Z,100
2018-11-07T07:44:11.795Z,100
2018-11-07T07:45:14.207Z,100
2018-11-07T07:46:16.510Z,100
2018-11-07T07:47:18.532Z,100
2018-11-07T07:48:20.560Z,100
2018-11-07T07:49:23.136Z,100
2018-11-07T07:50:25.379Z,100
2018-11-07T07:51:27.393Z,100
2018-11-07T07:52:29.752Z,100
2018-11-07T07:53:32.106Z,100
2018-11-07T07:54:34.134Z,100
2018-11-07T07:55:36.144Z,100
2018-11-07T07:56:38.172Z,100
2018-11-07T07:57:40.873Z,100
2018-11-07T07:58:42.887Z,100
2018-11-07T07:59:44.919Z,100
2018-11-07T08:00:46.935Z,100
2018-11-07T08:01:49.707Z,100
2018-11-07T08:02:51.714Z,100
2018-11-07T08:03:54.056Z,100
2018-11-07T08:04:56.071Z,100
2018-11-07T08:05:58.651Z,100
2018-11-07T08:07:01.042Z,100
2018-11-07T08:08:02.987Z,100
2018-11-07T08:09:05.685Z,100
2018-11-07T08:10:07.710Z,100
2018-11-07T08:11:09.739Z,100
2018-11-07T08:12:11.749Z,100
2018-11-07T08:13:13.771Z,100
2018-11-07T08:14:15.788Z,100
2018-11-07T08:15:17.802Z,100
2018-11-07T08:16:19.834Z,100
2018-11-07T08:17:21.846Z,100
2018-11-07T08:18:23.861Z,100
2018-11-07T08:19:26.199Z,100
2018-11-07T08:20:28.516Z,100
2018-11-07T08:21:30.529Z,100
2018-11-07T08:22:32.544Z,100
2018-11-07T08:23:34.559Z,100
2018-11-07T08:24:36.587Z,100
2018-11-07T08:25:38.607Z,100
2018-11-07T08:26:40.633Z,100
2018-11-07T08:27:42.922Z,100
2018-11-07T08:28:45.241Z,100
2018-11-07T08:29:47.257Z,100
2018-11-07T08:30:49.320Z,100
2018-11-07T08:31:51.927Z,100
2018-11-07T08:32:54.323Z,100
2018-11-07T08:33:56.755Z,100
2018-11-07T08:34:59.443Z,100
2018-11-07T08:36:01.477Z,100
2018-11-07T08:37:03.775Z,100
2018-11-07T08:38:06.283Z,100
2018-11-07T08:39:08.598Z,100
2018-11-07T08:40:10.618Z,100
2018-11-07T08:41:12.929Z,100
2018-11-07T08:42:15.008Z,100
2018-11-07T08:43:17.381Z,100
2018-11-07T08:44:19.401Z,100
2018-11-07T08:45:21.442Z,100
2018-11-07T08:46:23.456Z,100
2018-11-07T08:47:25.479Z,100
2018-11-07T08:48:27.511Z,100
2018-11-07T08:49:29.817Z,100
2018-11-07T08:50:32.236Z,100
2018-11-07T08:51:34.291Z,100
2018-11-07T08:52:36.311Z,100
2018-11-07T08:53:38.622Z,100
2018-11-07T08:54:40.648Z,100
2018-11-07T08:55:42.976Z,100
2018-11-07T08:56:45.305Z,100
2018-11-07T08:57:47.321Z,100
2018-11-07T08:58:49.341Z,100
2018-11-07T08:59:51.368Z,100
2018-11-07T09:00:53.673Z,100
2018-11-07T09:01:56.068Z,100
2018-11-07T09:02:58.456Z,100
2018-11-07T09:04:00.479Z,100
2018-11-07T09:05:02.510Z,100
2018-11-07T09:06:05.176Z,100
2018-11-07T09:07:07.252Z,100
2018-11-07T09:08:09.273Z,100
2018-11-07T09:09:11.306Z,100
2018-11-07T09:10:13.321Z,100
2018-11-07T09:11:15.635Z,100
2018-11-07T09:12:17.723Z,100
2018-11-07T09:13:19.680Z,100
2018-11-07T09:14:22.103Z,100
2018-11-07T09:15:24.421Z,100
2018-11-07T09:16:26.433Z,100
2018-11-07T09:17:28.449Z,100
2018-11-07T09:18:30.507Z,100
2018-11-07T09:19:32.531Z,100
2018-11-07T09:20:34.553Z,100
2018-11-07T09:21:36.965Z,100
2018-11-07T09:22:38.976Z,100
2018-11-07T09:23:41.291Z,100
2018-11-07T09:24:43.317Z,100
2018-11-07T09:25:45.333Z,100
2018-11-07T09:26:47.361Z,100
2018-11-07T09:27:49.386Z,100
2018-11-07T09:28:51.408Z,100
2018-11-07T09:29:53.818Z,100
2018-11-07T09:30:55.837Z,100
2018-11-07T09:31:57.856Z,100
2018-11-07T09:32:59.870Z,100
2018-11-07T09:34:01.905Z,100
2018-11-07T09:35:04.501Z,100
2018-11-07T09:36:06.838Z,100
2018-11-07T09:37:08.855Z,100
2018-11-07T09:38:10.885Z,100
2018-11-07T09:39:12.899Z,100
2018-11-07T09:40:14.925Z,100
2018-11-07T09:41:16.944Z,100
2018-11-07T09:42:18.982Z,100
2018-11-07T09:43:21.667Z,100
2018-11-07T09:44:23.695Z,100
2018-11-07T09:45:25.722Z,100
2018-11-07T09:46:27.739Z,100
2018-11-07T09:47:30.189Z,100
2018-11-07T09:48:32.155Z,100
2018-11-07T09:49:34.165Z,100
2018-11-07T09:50:36.572Z,100
2018-11-07T09:51:38.601Z,100
2018-11-07T09:52:41.004Z,100
2018-11-07T09:53:43.041Z,100
2018-11-07T09:54:45.066Z,100
2018-11-07T09:55:47.361Z,100
2018-11-07T09:56:49.409Z,100
2018-11-07T09:57:51.723Z,100
2018-11-07T09:58:53.739Z,100
2018-11-07T09:59:56.056Z,100
2018-11-07T10:00:58.082Z,100
2018-11-07T10:02:00.109Z,100
2018-11-07T10:03:02.570Z,100
2018-11-07T10:04:04.549Z,100
2018-11-07T10:05:06.569Z,100
2018-11-07T10:06:08.587Z,100
2018-11-07T10:07:10.622Z,100
2018-11-07T10:08:12.637Z,100
2018-11-07T10:09:14.666Z,100
2018-11-07T10:10:16.696Z,100
2018-11-07T10:11:18.715Z,100
2018-11-07T10:12:20.805Z,100
2018-11-07T10:13:23.436Z,100
2018-11-07T10:14:25.466Z,100
2018-11-07T10:15:27.487Z,100
2018-11-07T10:16:29.517Z,100
2018-11-07T10:17:31.946Z,100
2018-11-07T10:18:34.259Z,100
2018-11-07T10:19:36.279Z,100
2018-11-07T10:20:38.689Z,100
2018-11-07T10:21:41.105Z,100
2018-11-07T10:22:43.124Z,100
2018-11-07T10:23:45.535Z,100
2018-11-07T10:24:47.570Z,100
2018-11-07T10:25:49.596Z,100
2018-11-07T10:26:51.833Z,100
2018-11-07T10:27:54.059Z,99
2018-11-07T10:28:56.077Z,100
2018-11-07T10:29:58.780Z,98
2018-11-07T10:31:00.471Z,97
2018-11-07T10:32:02.888Z,95
2018-11-07T10:33:05.509Z,94
2018-11-07T10:34:07.544Z,93
2018-11-07T10:35:09.570Z,94
2018-11-07T10:36:11.609Z,93
2018-11-07T10:37:13.640Z,91
2018-11-07T10:38:15.751Z,92
2018-11-07T10:39:18.377Z,94
2018-11-07T10:40:20.806Z,92
2018-11-07T10:41:22.830Z,93
2018-11-07T10:42:24.870Z,90
2018-11-07T10:43:26.904Z,90
2018-11-07T10:44:28.989Z,89
2018-11-07T10:45:30.974Z,91
2018-11-07T10:46:33.277Z,92
2018-11-07T10:47:35.980Z,91
2018-11-07T10:48:38.386Z,90
2018-11-07T10:49:40.429Z,88
2018-11-07T10:50:42.457Z,87
2018-11-07T10:51:44.883Z,89
2018-11-07T10:52:46.875Z,89
2018-11-07T10:53:48.897Z,89
2018-11-07T10:54:51.229Z,91
2018-11-07T10:55:53.265Z,91
2018-11-07T10:56:55.309Z,92
2018-11-07T10:57:57.332Z,93
2018-11-07T10:58:59.370Z,91
2018-11-07T11:00:01.404Z,90
2018-11-07T11:01:03.431Z,92
2018-11-07T11:02:05.472Z,92
2018-11-07T11:03:07.502Z,90
2018-11-07T11:04:09.533Z,93
2018-11-07T11:05:11.615Z,93
2018-11-07T11:06:13.610Z,91
2018-11-07T11:07:15.641Z,91
2018-11-07T11:08:17.676Z,92
2018-11-07T11:09:20.369Z,91
2018-11-07T11:10:22.410Z,90
2018-11-07T11:11:24.605Z,90
2018-11-07T11:12:26.492Z,91
2018-11-07T11:13:28.515Z,92
2018-11-07T11:14:30.849Z,93
2018-11-07T11:15:32.876Z,94
2018-11-07T11:16:34.911Z,94
2018-11-07T11:17:37.232Z,95
2018-11-07T11:18:39.252Z,94
2018-11-07T11:19:41.290Z,94
2018-11-07T11:20:43.321Z,94
2018-11-07T11:21:45.364Z,95
2018-11-07T11:22:47.385Z,95
2018-11-07T11:23:49.737Z,95
2018-11-07T11:24:52.067Z,94
2018-11-07T11:25:54.130Z,95
2018-11-07T11:26:56.755Z,94
2018-11-07T11:27:58.781Z,95
2018-11-07T11:29:00.811Z,95
2018-11-07T11:30:04.095Z,96
2018-11-07T11:31:06.135Z,96
2018-11-07T11:32:08.163Z,97
2018-11-07T11:33:10.486Z,96
2018-11-07T11:34:13.366Z,97
2018-11-07T11:35:15.393Z,96
2018-11-07T11:36:17.211Z,98
2018-11-07T11:37:19.516Z,100
2018-11-07T11:38:21.940Z,100
2018-11-07T11:39:23.969Z,99
2018-11-07T11:40:26.054Z,100
2018-11-07T11:41:28.018Z,100
2018-11-07T11:42:30.042Z,99
2018-11-07T11:43:32.078Z,98
2018-11-07T11:44:34.114Z,98
2018-11-07T11:45:36.148Z,99
2018-11-07T11:46:38.171Z,99
2018-11-07T11:47:40.595Z,98
2018-11-07T11:48:43.006Z,98
2018-11-07T11:49:45.036Z,97
2018-11-07T11:50:47.360Z,97
2018-11-07T11:51:49.374Z,97
2018-11-07T11:52:51.412Z,96
2018-11-07T11:53:53.431Z,95
2018-11-07T11:54:55.470Z,96
2018-11-07T11:55:57.490Z,95
2018-11-07T11:56:59.818Z,96
2018-11-07T11:58:01.852Z,99
2018-11-07T11:59:04.541Z,99
2018-11-07T12:00:06.806Z,98
2018-11-07T12:01:10.510Z,97
2018-11-07T12:02:12.584Z,98
2018-11-07T12:03:14.559Z,98
2018-11-07T12:04:16.881Z,98
2018-11-07T12:05:19.539Z,99
2018-11-07T12:06:21.633Z,98
2018-11-07T12:07:23.984Z,98
2018-11-07T12:08:26.141Z,98
2018-11-07T12:09:28.061Z,98
2018-11-07T12:10:30.433Z,98
2018-11-07T12:11:32.471Z,98
2018-11-07T12:12:34.497Z,98
2018-11-07T12:13:36.520Z,99
2018-11-07T12:14:38.558Z,99
2018-11-07T12:15:40.969Z,100
2018-11-07T12:16:43.835Z,99
2018-11-07T12:17:46.232Z,98
2018-11-07T12:18:48.183Z,98
2018-11-07T12:19:50.206Z,98
2018-11-07T12:20:52.246Z,98
2018-11-07T12:21:54.269Z,98
2018-11-07T12:22:56.582Z,98
2018-11-07T12:23:58.612Z,98
2018-11-07T12:25:00.920Z,98
2018-11-07T12:26:03.008Z,97
2018-11-07T12:27:04.974Z,98
2018-11-07T12:28:07.017Z,99
2018-11-07T12:29:09.037Z,99
2018-11-07T12:30:11.459Z,98
2018-11-07T12:31:13.830Z,97
2018-11-07T12:32:15.855Z,96
2018-11-07T12:33:17.898Z,96
2018-11-07T12:34:20.210Z,96
2018-11-07T12:35:22.532Z,95
2018-11-07T12:36:24.899Z,96
2018-11-07T12:37:26.890Z,97
2018-11-07T12:38:28.910Z,96
2018-11-07T12:39:30.939Z,97
2018-11-07T12:40:32.975Z,95
2018-11-07T12:41:34.996Z,94
2018-11-07T12:42:37.038Z,93
2018-11-07T12:43:39.065Z,94
2018-11-07T12:44:41.088Z,93
2018-11-07T12:45:43.407Z,94
2018-11-07T12:46:45.722Z,96
2018-11-07T12:47:47.758Z,97
2018-11-07T12:48:49.780Z,95
2018-11-07T12:49:51.919Z,96
2018-11-07T12:50:53.854Z,96
2018-11-07T12:51:56.169Z,95
2018-11-07T12:52:58.186Z,96
2018-11-07T12:54:00.226Z,96
2018-11-07T12:55:02.534Z,96
2018-11-07T12:56:04.576Z,97
2018-11-07T12:57:07.040Z,96
2018-11-07T12:58:09.193Z,95
2018-11-07T12:59:12.251Z,96
2018-11-07T13:00:14.555Z,95
2018-11-07T13:01:16.600Z,96
2018-11-07T13:02:19.305Z,96
2018-11-07T13:03:21.341Z,96
2018-11-07T13:04:23.660Z,97
2018-11-07T13:05:25.679Z,96
2018-11-07T13:06:28.009Z,97
2018-11-07T13:07:30.033Z,96
2018-11-07T13:08:32.058Z,95
2018-11-07T13:09:34.081Z,97
2018-11-07T13:10:36.122Z,96
2018-11-07T13:11:38.432Z,96
2018-11-07T13:12:40.474Z,96
2018-11-07T13:13:42.526Z,95
2018-11-07T13:14:44.564Z,95
2018-11-07T13:15:46.615Z,97
2018-11-07T13:16:48.666Z,98
2018-11-07T13:17:50.698Z,98
2018-11-07T13:18:53.013Z,98
2018-11-07T13:19:55.053Z,98
2018-11-07T13:20:57.075Z,98
2018-11-07T13:21:59.111Z,98
2018-11-07T13:23:01.432Z,98
2018-11-07T13:24:04.133Z,98
2018-11-07T13:25:06.162Z,100
2018-11-07T13:26:08.204Z,99
2018-11-07T13:27:10.900Z,98
2018-11-07T13:28:13.470Z,98
2018-11-07T13:29:15.450Z,99
2018-11-07T13:30:17.474Z,100
2018-11-07T13:31:19.843Z,100
2018-11-07T13:32:21.873Z,99
2018-11-07T13:33:24.190Z,99
2018-11-07T13:34:26.255Z,99
2018-11-07T13:35:28.253Z,100
2018-11-07T13:36:30.278Z,100
2018-11-07T13:37:32.517Z,100
2018-11-07T13:38:36.374Z,100
2018-11-07T13:39:38.991Z,99
2018-11-07T13:40:41.029Z,99
2018-11-07T13:41:43.369Z,99
2018-11-07T13:42:45.712Z,100
2018-11-07T13:43:47.731Z,100
2018-11-07T13:44:50.053Z,100
2018-11-07T13:45:52.142Z,99
2018-11-07T13:46:54.383Z,99
2018-11-07T13:47:56.711Z,100
2018-11-07T13:48:58.734Z,100
2018-11-07T13:50:01.052Z,100
2018-11-07T13:51:03.399Z,100
2018-11-07T13:52:05.707Z,100
2018-11-07T13:53:07.778Z,100
2018-11-07T13:54:10.143Z,100
2018-11-07T13:55:12.840Z,100
2018-11-07T13:56:14.873Z,100
2018-11-07T13:57:16.903Z,100
2018-11-07T13:58:19.224Z,100
2018-11-07T13:59:21.565Z,100
2018-11-07T14:00:23.841Z,100
2018-11-07T14:01:25.865Z,100
2018-11-07T14:02:27.892Z,100
2018-11-07T14:03:30.237Z,100
2018-11-07T14:04:32.277Z,100
2018-11-07T14:05:34.455Z,100
2018-11-07T14:06:36.372Z,100
2018-11-07T14:07:38.404Z,100
2018-11-07T14:08:40.460Z,100
2018-11-07T14:09:42.497Z,100
2018-11-07T14:10:44.524Z,100
2018-11-07T14:11:46.556Z,100
2018-11-07T14:12:48.577Z,100
2018-11-07T14:13:50.893Z,100
2018-11-07T14:14:53.211Z,100
2018-11-07T14:15:55.741Z,100
2018-11-07T14:16:57.703Z,100
2018-11-07T14:18:00.023Z,100
2018-11-07T14:19:02.052Z,100
2018-11-07T14:20:04.074Z,100
2018-11-07T14:21:06.506Z,100
2018-11-07T14:22:08.535Z,100
2018-11-07T14:23:10.839Z,100